sensor_id;sensor_type;location;lat;lon;timestamp;P1;durP1;ratioP1;P2;durP2;ratioP2
45338;SDS011;31071;51.478;5.710;2023-07-16T00:00:43;7.13;;;5.68;;
45338;SDS011;31071;51.478;5.710;2023-07-16T00:03:09;10.20;;;5.00;;
45338;SDS011;31071;51.478;5.710;2023-07-16T00:05:36;7.18;;;5.40;;
45338;SDS011;31071;51.478;5.710;2023-07-16T00:08:02;8.52;;;4.35;;
45338;SDS011;31071;51.478;5.710;2023-07-16T00:10:28;9.20;;;5.10;;
45338;SDS011;31071;51.478;5.710;2023-07-16T00:12:53;8.52;;;4.88;;
45338;SDS011;31071;51.478;5.710;2023-07-16T00:15:19;10.57;;;4.85;;
45338;SDS011;31071;51.478;5.710;2023-07-16T00:17:44;6.28;;;4.68;;
45338;SDS011;31071;51.478;5.710;2023-07-16T00:20:10;5.97;;;4.78;;
45338;SDS011;31071;51.478;5.710;2023-07-16T00:22:36;9.95;;;4.93;;
45338;SDS011;31071;51.478;5.710;2023-07-16T00:25:04;8.57;;;4.80;;
45338;SDS011;31071;51.478;5.710;2023-07-16T00:27:31;8.82;;;5.13;;
45338;SDS011;31071;51.478;5.710;2023-07-16T00:29:56;10.25;;;5.40;;
45338;SDS011;31071;51.478;5.710;2023-07-16T00:32:22;9.55;;;5.13;;
45338;SDS011;31071;51.478;5.710;2023-07-16T00:34:47;8.10;;;4.88;;
45338;SDS011;31071;51.478;5.710;2023-07-16T00:37:13;11.23;;;5.40;;
45338;SDS011;31071;51.478;5.710;2023-07-16T00:39:38;8.32;;;4.95;;
45338;SDS011;31071;51.478;5.710;2023-07-16T00:42:04;8.73;;;5.07;;
45338;SDS011;31071;51.478;5.710;2023-07-16T00:44:29;10.85;;;4.72;;
45338;SDS011;31071;51.478;5.710;2023-07-16T00:46:55;7.18;;;5.07;;
45338;SDS011;31071;51.478;5.710;2023-07-16T00:49:21;10.30;;;5.55;;
45338;SDS011;31071;51.478;5.710;2023-07-16T00:51:48;9.13;;;5.47;;
45338;SDS011;31071;51.478;5.710;2023-07-16T00:54:14;11.80;;;5.22;;
45338;SDS011;31071;51.478;5.710;2023-07-16T00:56:40;9.80;;;5.50;;
45338;SDS011;31071;51.478;5.710;2023-07-16T00:59:06;9.95;;;5.80;;
45338;SDS011;31071;51.478;5.710;2023-07-16T01:01:31;10.70;;;5.78;;
45338;SDS011;31071;51.478;5.710;2023-07-16T01:03:57;9.48;;;5.43;;
45338;SDS011;31071;51.478;5.710;2023-07-16T01:06:30;11.95;;;5.90;;
45338;SDS011;31071;51.478;5.710;2023-07-16T01:09:07;8.80;;;5.55;;
45338;SDS011;31071;51.478;5.710;2023-07-16T01:11:40;12.57;;;5.50;;
45338;SDS011;31071;51.478;5.710;2023-07-16T01:14:08;11.18;;;5.45;;
45338;SDS011;31071;51.478;5.710;2023-07-16T01:16:34;9.90;;;5.03;;
45338;SDS011;31071;51.478;5.710;2023-07-16T01:19:00;8.77;;;4.95;;
45338;SDS011;31071;51.478;5.710;2023-07-16T01:21:27;9.07;;;4.50;;
45338;SDS011;31071;51.478;5.710;2023-07-16T01:26:59;7.22;;;4.15;;
45338;SDS011;31071;51.478;5.710;2023-07-16T01:32:07;10.07;;;4.60;;
45338;SDS011;31071;51.478;5.710;2023-07-16T01:34:34;8.13;;;3.58;;
45338;SDS011;31071;51.478;5.710;2023-07-16T01:37:01;7.65;;;3.92;;
45338;SDS011;31071;51.478;5.710;2023-07-16T01:39:27;9.65;;;4.03;;
45338;SDS011;31071;51.478;5.710;2023-07-16T01:41:53;6.90;;;3.88;;
45338;SDS011;31071;51.478;5.710;2023-07-16T01:44:22;12.45;;;3.75;;
45338;SDS011;31071;51.478;5.710;2023-07-16T01:46:51;7.90;;;4.00;;
45338;SDS011;31071;51.478;5.710;2023-07-16T01:49:30;12.68;;;4.30;;
45338;SDS011;31071;51.478;5.710;2023-07-16T01:51:56;10.70;;;4.05;;
45338;SDS011;31071;51.478;5.710;2023-07-16T01:54:21;10.98;;;4.60;;
45338;SDS011;31071;51.478;5.710;2023-07-16T01:56:47;10.13;;;4.65;;
45338;SDS011;31071;51.478;5.710;2023-07-16T01:59:12;11.63;;;4.50;;
45338;SDS011;31071;51.478;5.710;2023-07-16T02:01:38;12.65;;;5.25;;
45338;SDS011;31071;51.478;5.710;2023-07-16T02:04:04;9.60;;;4.45;;
45338;SDS011;31071;51.478;5.710;2023-07-16T02:06:29;12.45;;;4.80;;
45338;SDS011;31071;51.478;5.710;2023-07-16T02:08:55;10.13;;;4.60;;
45338;SDS011;31071;51.478;5.710;2023-07-16T02:11:21;12.13;;;4.70;;
45338;SDS011;31071;51.478;5.710;2023-07-16T02:13:47;10.93;;;4.85;;
45338;SDS011;31071;51.478;5.710;2023-07-16T02:16:12;7.13;;;4.32;;
45338;SDS011;31071;51.478;5.710;2023-07-16T02:18:38;15.82;;;4.70;;
45338;SDS011;31071;51.478;5.710;2023-07-16T02:21:03;12.35;;;5.07;;
45338;SDS011;31071;51.478;5.710;2023-07-16T02:23:29;10.10;;;5.00;;
45338;SDS011;31071;51.478;5.710;2023-07-16T02:25:55;9.77;;;4.53;;
45338;SDS011;31071;51.478;5.710;2023-07-16T02:28:23;6.57;;;4.65;;
45338;SDS011;31071;51.478;5.710;2023-07-16T02:30:49;9.63;;;5.65;;
45338;SDS011;31071;51.478;5.710;2023-07-16T02:33:15;13.00;;;5.30;;
45338;SDS011;31071;51.478;5.710;2023-07-16T02:35:45;13.13;;;5.82;;
45338;SDS011;31071;51.478;5.710;2023-07-16T02:38:14;9.00;;;5.63;;
45338;SDS011;31071;51.478;5.710;2023-07-16T02:40:43;13.30;;;5.47;;
45338;SDS011;31071;51.478;5.710;2023-07-16T02:43:10;9.88;;;5.13;;
45338;SDS011;31071;51.478;5.710;2023-07-16T02:45:39;10.98;;;5.20;;
45338;SDS011;31071;51.478;5.710;2023-07-16T02:48:10;10.50;;;5.40;;
45338;SDS011;31071;51.478;5.710;2023-07-16T02:50:36;12.50;;;4.93;;
45338;SDS011;31071;51.478;5.710;2023-07-16T02:53:05;8.50;;;4.25;;
45338;SDS011;31071;51.478;5.710;2023-07-16T02:55:33;7.40;;;4.03;;
45338;SDS011;31071;51.478;5.710;2023-07-16T02:57:59;9.13;;;4.07;;
45338;SDS011;31071;51.478;5.710;2023-07-16T03:00:29;10.85;;;4.28;;
45338;SDS011;31071;51.478;5.710;2023-07-16T03:02:56;8.40;;;4.28;;
45338;SDS011;31071;51.478;5.710;2023-07-16T03:05:23;13.05;;;3.83;;
45338;SDS011;31071;51.478;5.710;2023-07-16T03:07:50;12.60;;;4.50;;
45338;SDS011;31071;51.478;5.710;2023-07-16T03:10:15;8.27;;;3.88;;
45338;SDS011;31071;51.478;5.710;2023-07-16T03:12:48;7.97;;;3.58;;
45338;SDS011;31071;51.478;5.710;2023-07-16T03:15:13;10.23;;;3.88;;
45338;SDS011;31071;51.478;5.710;2023-07-16T03:17:39;11.07;;;3.90;;
45338;SDS011;31071;51.478;5.710;2023-07-16T03:20:05;10.40;;;3.83;;
45338;SDS011;31071;51.478;5.710;2023-07-16T03:22:31;7.45;;;3.58;;
45338;SDS011;31071;51.478;5.710;2023-07-16T03:24:57;10.20;;;4.00;;
45338;SDS011;31071;51.478;5.710;2023-07-16T03:27:22;9.88;;;4.18;;
45338;SDS011;31071;51.478;5.710;2023-07-16T03:29:48;12.65;;;4.30;;
45338;SDS011;31071;51.478;5.710;2023-07-16T03:32:13;6.75;;;3.85;;
45338;SDS011;31071;51.478;5.710;2023-07-16T03:34:39;9.02;;;4.18;;
45338;SDS011;31071;51.478;5.710;2023-07-16T03:37:05;8.77;;;3.95;;
45338;SDS011;31071;51.478;5.710;2023-07-16T03:39:30;11.85;;;4.20;;
45338;SDS011;31071;51.478;5.710;2023-07-16T03:41:56;17.33;;;4.22;;
45338;SDS011;31071;51.478;5.710;2023-07-16T03:44:21;9.35;;;4.10;;
45338;SDS011;31071;51.478;5.710;2023-07-16T03:46:47;13.95;;;4.45;;
45338;SDS011;31071;51.478;5.710;2023-07-16T03:49:12;9.68;;;3.80;;
45338;SDS011;31071;51.478;5.710;2023-07-16T03:51:38;12.73;;;3.70;;
45338;SDS011;31071;51.478;5.710;2023-07-16T03:54:04;10.68;;;4.03;;
45338;SDS011;31071;51.478;5.710;2023-07-16T03:56:29;9.05;;;4.05;;
45338;SDS011;31071;51.478;5.710;2023-07-16T03:58:55;10.82;;;4.70;;
45338;SDS011;31071;51.478;5.710;2023-07-16T04:01:21;12.75;;;4.32;;
45338;SDS011;31071;51.478;5.710;2023-07-16T04:03:46;10.65;;;4.60;;
45338;SDS011;31071;51.478;5.710;2023-07-16T04:06:12;10.23;;;4.43;;
45338;SDS011;31071;51.478;5.710;2023-07-16T04:08:38;11.70;;;4.28;;
45338;SDS011;31071;51.478;5.710;2023-07-16T04:11:04;15.68;;;4.30;;
45338;SDS011;31071;51.478;5.710;2023-07-16T04:13:30;9.65;;;4.43;;
45338;SDS011;31071;51.478;5.710;2023-07-16T04:15:56;13.02;;;4.45;;
45338;SDS011;31071;51.478;5.710;2023-07-16T04:18:23;12.75;;;4.63;;
45338;SDS011;31071;51.478;5.710;2023-07-16T04:20:49;14.50;;;6.18;;
45338;SDS011;31071;51.478;5.710;2023-07-16T04:23:15;10.98;;;4.38;;
45338;SDS011;31071;51.478;5.710;2023-07-16T04:25:41;12.80;;;4.68;;
45338;SDS011;31071;51.478;5.710;2023-07-16T04:28:10;14.07;;;5.07;;
45338;SDS011;31071;51.478;5.710;2023-07-16T04:30:36;9.55;;;5.07;;
45338;SDS011;31071;51.478;5.710;2023-07-16T04:33:03;18.38;;;5.13;;
45338;SDS011;31071;51.478;5.710;2023-07-16T04:35:29;11.45;;;4.80;;
45338;SDS011;31071;51.478;5.710;2023-07-16T04:37:55;11.98;;;5.63;;
45338;SDS011;31071;51.478;5.710;2023-07-16T04:40:21;11.65;;;5.80;;
45338;SDS011;31071;51.478;5.710;2023-07-16T04:42:46;13.60;;;5.47;;
45338;SDS011;31071;51.478;5.710;2023-07-16T04:45:12;15.45;;;5.80;;
45338;SDS011;31071;51.478;5.710;2023-07-16T04:47:38;12.38;;;5.20;;
45338;SDS011;31071;51.478;5.710;2023-07-16T04:50:03;12.20;;;5.85;;
45338;SDS011;31071;51.478;5.710;2023-07-16T04:52:29;14.25;;;5.22;;
45338;SDS011;31071;51.478;5.710;2023-07-16T04:54:55;12.38;;;5.25;;
45338;SDS011;31071;51.478;5.710;2023-07-16T04:57:21;13.13;;;5.20;;
45338;SDS011;31071;51.478;5.710;2023-07-16T04:59:46;15.98;;;5.00;;
45338;SDS011;31071;51.478;5.710;2023-07-16T05:02:12;12.60;;;5.35;;
45338;SDS011;31071;51.478;5.710;2023-07-16T05:04:39;16.15;;;5.60;;
45338;SDS011;31071;51.478;5.710;2023-07-16T05:07:04;12.07;;;5.28;;
45338;SDS011;31071;51.478;5.710;2023-07-16T05:09:30;14.80;;;5.53;;
45338;SDS011;31071;51.478;5.710;2023-07-16T05:11:56;16.02;;;5.90;;
45338;SDS011;31071;51.478;5.710;2023-07-16T05:14:22;15.93;;;5.82;;
45338;SDS011;31071;51.478;5.710;2023-07-16T05:16:51;12.30;;;5.68;;
45338;SDS011;31071;51.478;5.710;2023-07-16T05:19:16;16.73;;;6.10;;
45338;SDS011;31071;51.478;5.710;2023-07-16T05:21:42;15.38;;;5.63;;
45338;SDS011;31071;51.478;5.710;2023-07-16T05:24:07;16.88;;;6.03;;
45338;SDS011;31071;51.478;5.710;2023-07-16T05:26:33;17.10;;;5.85;;
45338;SDS011;31071;51.478;5.710;2023-07-16T05:28:58;12.30;;;5.38;;
45338;SDS011;31071;51.478;5.710;2023-07-16T05:31:24;12.40;;;5.78;;
45338;SDS011;31071;51.478;5.710;2023-07-16T05:33:49;11.35;;;5.30;;
45338;SDS011;31071;51.478;5.710;2023-07-16T05:36:15;15.60;;;6.45;;
45338;SDS011;31071;51.478;5.710;2023-07-16T05:38:41;14.10;;;5.32;;
45338;SDS011;31071;51.478;5.710;2023-07-16T05:41:06;14.98;;;5.63;;
45338;SDS011;31071;51.478;5.710;2023-07-16T05:43:32;11.80;;;6.50;;
45338;SDS011;31071;51.478;5.710;2023-07-16T05:45:58;12.68;;;6.03;;
45338;SDS011;31071;51.478;5.710;2023-07-16T05:48:23;12.57;;;6.22;;
45338;SDS011;31071;51.478;5.710;2023-07-16T05:50:49;13.57;;;6.57;;
45338;SDS011;31071;51.478;5.710;2023-07-16T05:53:15;17.85;;;6.20;;
45338;SDS011;31071;51.478;5.710;2023-07-16T05:55:41;15.23;;;5.80;;
45338;SDS011;31071;51.478;5.710;2023-07-16T05:58:07;14.60;;;6.50;;
45338;SDS011;31071;51.478;5.710;2023-07-16T06:00:33;11.77;;;6.15;;
45338;SDS011;31071;51.478;5.710;2023-07-16T06:03:02;15.70;;;6.47;;
45338;SDS011;31071;51.478;5.710;2023-07-16T06:05:28;19.23;;;6.32;;
45338;SDS011;31071;51.478;5.710;2023-07-16T06:07:57;13.98;;;6.47;;
45338;SDS011;31071;51.478;5.710;2023-07-16T06:10:23;14.38;;;7.10;;
45338;SDS011;31071;51.478;5.710;2023-07-16T06:12:49;14.55;;;6.28;;
45338;SDS011;31071;51.478;5.710;2023-07-16T06:15:14;19.50;;;6.13;;
45338;SDS011;31071;51.478;5.710;2023-07-16T06:17:40;18.13;;;6.30;;
45338;SDS011;31071;51.478;5.710;2023-07-16T06:20:06;15.75;;;6.53;;
45338;SDS011;31071;51.478;5.710;2023-07-16T06:22:33;14.70;;;6.18;;
45338;SDS011;31071;51.478;5.710;2023-07-16T06:24:59;19.02;;;6.70;;
45338;SDS011;31071;51.478;5.710;2023-07-16T06:27:29;14.77;;;6.95;;
45338;SDS011;31071;51.478;5.710;2023-07-16T06:29:55;15.70;;;6.40;;
45338;SDS011;31071;51.478;5.710;2023-07-16T06:32:20;20.60;;;6.78;;
45338;SDS011;31071;51.478;5.710;2023-07-16T06:34:46;18.35;;;6.53;;
45338;SDS011;31071;51.478;5.710;2023-07-16T06:37:12;14.65;;;6.22;;
45338;SDS011;31071;51.478;5.710;2023-07-16T06:39:37;15.15;;;6.70;;
45338;SDS011;31071;51.478;5.710;2023-07-16T06:42:03;18.63;;;7.22;;
45338;SDS011;31071;51.478;5.710;2023-07-16T06:44:29;17.77;;;7.07;;
45338;SDS011;31071;51.478;5.710;2023-07-16T06:46:54;21.27;;;7.15;;
45338;SDS011;31071;51.478;5.710;2023-07-16T06:49:21;16.77;;;6.93;;
45338;SDS011;31071;51.478;5.710;2023-07-16T06:51:47;15.70;;;6.72;;
45338;SDS011;31071;51.478;5.710;2023-07-16T06:54:12;17.13;;;7.53;;
45338;SDS011;31071;51.478;5.710;2023-07-16T06:56:38;15.43;;;7.47;;
45338;SDS011;31071;51.478;5.710;2023-07-16T06:59:04;20.25;;;7.40;;
45338;SDS011;31071;51.478;5.710;2023-07-16T07:01:30;14.43;;;7.10;;
45338;SDS011;31071;51.478;5.710;2023-07-16T07:03:55;15.68;;;7.72;;
45338;SDS011;31071;51.478;5.710;2023-07-16T07:06:21;21.20;;;8.45;;
45338;SDS011;31071;51.478;5.710;2023-07-16T07:08:47;12.05;;;6.90;;
45338;SDS011;31071;51.478;5.710;2023-07-16T07:11:13;20.92;;;7.95;;
45338;SDS011;31071;51.478;5.710;2023-07-16T07:13:38;18.95;;;8.23;;
45338;SDS011;31071;51.478;5.710;2023-07-16T07:16:04;13.95;;;8.40;;
45338;SDS011;31071;51.478;5.710;2023-07-16T07:18:29;18.42;;;8.13;;
45338;SDS011;31071;51.478;5.710;2023-07-16T07:20:55;15.18;;;7.60;;
45338;SDS011;31071;51.478;5.710;2023-07-16T07:23:21;19.70;;;8.02;;
45338;SDS011;31071;51.478;5.710;2023-07-16T07:25:50;21.83;;;8.30;;
45338;SDS011;31071;51.478;5.710;2023-07-16T07:28:17;21.02;;;8.15;;
45338;SDS011;31071;51.478;5.710;2023-07-16T07:30:43;17.23;;;8.02;;
45338;SDS011;31071;51.478;5.710;2023-07-16T07:33:09;16.20;;;7.03;;
45338;SDS011;31071;51.478;5.710;2023-07-16T07:35:35;18.55;;;8.15;;
45338;SDS011;31071;51.478;5.710;2023-07-16T07:38:00;13.90;;;7.68;;
45338;SDS011;31071;51.478;5.710;2023-07-16T07:40:26;22.10;;;8.20;;
45338;SDS011;31071;51.478;5.710;2023-07-16T07:42:52;22.80;;;8.07;;
45338;SDS011;31071;51.478;5.710;2023-07-16T07:45:19;15.18;;;7.50;;
45338;SDS011;31071;51.478;5.710;2023-07-16T07:47:44;13.57;;;7.28;;
45338;SDS011;31071;51.478;5.710;2023-07-16T07:50:11;13.95;;;7.68;;
45338;SDS011;31071;51.478;5.710;2023-07-16T07:52:37;15.07;;;7.40;;
45338;SDS011;31071;51.478;5.710;2023-07-16T07:55:03;13.77;;;7.15;;
45338;SDS011;31071;51.478;5.710;2023-07-16T07:57:29;17.88;;;7.30;;
45338;SDS011;31071;51.478;5.710;2023-07-16T07:59:56;17.23;;;6.72;;
45338;SDS011;31071;51.478;5.710;2023-07-16T08:02:23;14.20;;;7.20;;
45338;SDS011;31071;51.478;5.710;2023-07-16T08:04:50;14.77;;;7.47;;
45338;SDS011;31071;51.478;5.710;2023-07-16T08:07:16;15.48;;;7.03;;
45338;SDS011;31071;51.478;5.710;2023-07-16T08:09:42;16.80;;;7.05;;
45338;SDS011;31071;51.478;5.710;2023-07-16T08:12:08;13.43;;;7.13;;
45338;SDS011;31071;51.478;5.710;2023-07-16T08:14:33;16.98;;;8.07;;
45338;SDS011;31071;51.478;5.710;2023-07-16T08:16:59;15.88;;;6.82;;
45338;SDS011;31071;51.478;5.710;2023-07-16T08:19:24;17.40;;;7.30;;
45338;SDS011;31071;51.478;5.710;2023-07-16T08:21:50;14.60;;;7.07;;
45338;SDS011;31071;51.478;5.710;2023-07-16T08:24:15;14.23;;;7.30;;
45338;SDS011;31071;51.478;5.710;2023-07-16T08:26:41;12.00;;;7.28;;
45338;SDS011;31071;51.478;5.710;2023-07-16T08:29:07;13.95;;;6.53;;
45338;SDS011;31071;51.478;5.710;2023-07-16T08:31:32;11.68;;;6.75;;
45338;SDS011;31071;51.478;5.710;2023-07-16T08:33:58;14.10;;;6.88;;
45338;SDS011;31071;51.478;5.710;2023-07-16T08:36:26;18.10;;;6.95;;
45338;SDS011;31071;51.478;5.710;2023-07-16T08:38:52;13.75;;;6.05;;
45338;SDS011;31071;51.478;5.710;2023-07-16T08:41:17;10.02;;;5.45;;
45338;SDS011;31071;51.478;5.710;2023-07-16T08:43:45;13.38;;;6.32;;
45338;SDS011;31071;51.478;5.710;2023-07-16T08:46:12;12.70;;;6.55;;
45338;SDS011;31071;51.478;5.710;2023-07-16T08:48:38;13.85;;;6.35;;
45338;SDS011;31071;51.478;5.710;2023-07-16T08:51:09;12.02;;;6.35;;
45338;SDS011;31071;51.478;5.710;2023-07-16T08:53:36;12.48;;;6.10;;
45338;SDS011;31071;51.478;5.710;2023-07-16T08:56:01;11.02;;;6.20;;
45338;SDS011;31071;51.478;5.710;2023-07-16T08:58:30;15.70;;;6.38;;
45338;SDS011;31071;51.478;5.710;2023-07-16T09:00:56;11.77;;;5.63;;
45338;SDS011;31071;51.478;5.710;2023-07-16T09:03:22;13.15;;;6.32;;
45338;SDS011;31071;51.478;5.710;2023-07-16T09:05:48;10.40;;;5.35;;
45338;SDS011;31071;51.478;5.710;2023-07-16T09:08:14;12.25;;;5.93;;
45338;SDS011;31071;51.478;5.710;2023-07-16T09:10:40;13.60;;;6.15;;
45338;SDS011;31071;51.478;5.710;2023-07-16T09:13:06;13.88;;;6.28;;
45338;SDS011;31071;51.478;5.710;2023-07-16T09:15:32;14.57;;;5.57;;
45338;SDS011;31071;51.478;5.710;2023-07-16T09:17:59;11.98;;;5.40;;
45338;SDS011;31071;51.478;5.710;2023-07-16T09:20:25;10.30;;;5.55;;
45338;SDS011;31071;51.478;5.710;2023-07-16T09:22:56;12.70;;;6.03;;
45338;SDS011;31071;51.478;5.710;2023-07-16T09:25:31;11.07;;;5.55;;
45338;SDS011;31071;51.478;5.710;2023-07-16T09:27:57;10.50;;;5.25;;
45338;SDS011;31071;51.478;5.710;2023-07-16T09:30:30;9.65;;;5.28;;
45338;SDS011;31071;51.478;5.710;2023-07-16T09:33:15;9.17;;;5.23;;
45338;SDS011;31071;51.478;5.710;2023-07-16T09:35:42;12.80;;;5.70;;
45338;SDS011;31071;51.478;5.710;2023-07-16T09:38:08;8.10;;;4.95;;
45338;SDS011;31071;51.478;5.710;2023-07-16T09:40:38;8.48;;;5.07;;
45338;SDS011;31071;51.478;5.710;2023-07-16T09:43:05;14.05;;;5.53;;
45338;SDS011;31071;51.478;5.710;2023-07-16T09:45:31;12.10;;;5.80;;
45338;SDS011;31071;51.478;5.710;2023-07-16T09:47:57;13.43;;;5.78;;
45338;SDS011;31071;51.478;5.710;2023-07-16T09:50:27;10.68;;;5.07;;
45338;SDS011;31071;51.478;5.710;2023-07-16T09:52:55;12.77;;;5.38;;
45338;SDS011;31071;51.478;5.710;2023-07-16T09:55:22;12.48;;;5.00;;
45338;SDS011;31071;51.478;5.710;2023-07-16T09:57:48;12.90;;;5.07;;
45338;SDS011;31071;51.478;5.710;2023-07-16T10:00:15;11.40;;;4.95;;
45338;SDS011;31071;51.478;5.710;2023-07-16T10:02:41;11.13;;;5.22;;
45338;SDS011;31071;51.478;5.710;2023-07-16T10:05:17;10.95;;;4.93;;
45338;SDS011;31071;51.478;5.710;2023-07-16T10:07:54;8.82;;;4.40;;
45338;SDS011;31071;51.478;5.710;2023-07-16T10:10:25;9.68;;;4.32;;
45338;SDS011;31071;51.478;5.710;2023-07-16T10:13:02;8.60;;;4.10;;
45338;SDS011;31071;51.478;5.710;2023-07-16T10:15:30;7.20;;;4.20;;
45338;SDS011;31071;51.478;5.710;2023-07-16T10:17:56;4.80;;;3.78;;
45338;SDS011;31071;51.478;5.710;2023-07-16T10:20:43;7.20;;;3.90;;
45338;SDS011;31071;51.478;5.710;2023-07-16T10:23:12;6.30;;;4.00;;
45338;SDS011;31071;51.478;5.710;2023-07-16T10:25:38;9.40;;;3.88;;
45338;SDS011;31071;51.478;5.710;2023-07-16T10:28:05;10.43;;;4.03;;
45338;SDS011;31071;51.478;5.710;2023-07-16T10:30:31;10.05;;;4.50;;
45338;SDS011;31071;51.478;5.710;2023-07-16T10:32:57;7.75;;;4.00;;
45338;SDS011;31071;51.478;5.710;2023-07-16T10:35:25;7.55;;;4.47;;
45338;SDS011;31071;51.478;5.710;2023-07-16T10:37:50;8.00;;;4.07;;
45338;SDS011;31071;51.478;5.710;2023-07-16T10:40:16;8.65;;;4.70;;
45338;SDS011;31071;51.478;5.710;2023-07-16T10:42:42;9.63;;;4.10;;
45338;SDS011;31071;51.478;5.710;2023-07-16T10:45:09;9.88;;;4.32;;
45338;SDS011;31071;51.478;5.710;2023-07-16T10:47:37;8.80;;;4.40;;
45338;SDS011;31071;51.478;5.710;2023-07-16T10:50:05;10.32;;;4.72;;
45338;SDS011;31071;51.478;5.710;2023-07-16T10:52:33;7.60;;;4.90;;
45338;SDS011;31071;51.478;5.710;2023-07-16T10:55:00;10.43;;;4.60;;
45338;SDS011;31071;51.478;5.710;2023-07-16T10:57:26;9.82;;;4.45;;
45338;SDS011;31071;51.478;5.710;2023-07-16T10:59:53;7.28;;;4.40;;
45338;SDS011;31071;51.478;5.710;2023-07-16T11:02:20;9.57;;;4.63;;
45338;SDS011;31071;51.478;5.710;2023-07-16T11:04:47;8.15;;;4.47;;
45338;SDS011;31071;51.478;5.710;2023-07-16T11:07:14;12.40;;;5.43;;
45338;SDS011;31071;51.478;5.710;2023-07-16T11:09:46;9.15;;;4.70;;
45338;SDS011;31071;51.478;5.710;2023-07-16T11:12:19;6.63;;;4.18;;
45338;SDS011;31071;51.478;5.710;2023-07-16T11:14:50;6.55;;;4.22;;
45338;SDS011;31071;51.478;5.710;2023-07-16T11:28:46;9.43;;;5.10;;
45338;SDS011;31071;51.478;5.710;2023-07-16T12:00:28;7.18;;;4.47;;
45338;SDS011;31071;51.478;5.710;2023-07-16T12:04:06;8.38;;;4.80;;
45338;SDS011;31071;51.478;5.710;2023-07-16T12:06:58;9.43;;;4.82;;
45338;SDS011;31071;51.478;5.710;2023-07-16T12:09:33;11.07;;;4.97;;
45338;SDS011;31071;51.478;5.710;2023-07-16T12:20:19;7.82;;;5.03;;
45338;SDS011;31071;51.478;5.710;2023-07-16T12:23:25;11.18;;;5.40;;
45338;SDS011;31071;51.478;5.710;2023-07-16T12:31:54;10.48;;;5.32;;
45338;SDS011;31071;51.478;5.710;2023-07-16T12:34:53;12.60;;;5.35;;
45338;SDS011;31071;51.478;5.710;2023-07-16T12:50:02;9.82;;;5.03;;
45338;SDS011;31071;51.478;5.710;2023-07-16T13:04:39;8.90;;;5.18;;
45338;SDS011;31071;51.478;5.710;2023-07-16T13:14:45;8.13;;;4.50;;
45338;SDS011;31071;51.478;5.710;2023-07-16T13:17:58;6.80;;;4.65;;
45338;SDS011;31071;51.478;5.710;2023-07-16T13:27:20;10.95;;;5.20;;
45338;SDS011;31071;51.478;5.710;2023-07-16T13:33:24;7.03;;;4.80;;
45338;SDS011;31071;51.478;5.710;2023-07-16T13:35:51;9.25;;;4.65;;
45338;SDS011;31071;51.478;5.710;2023-07-16T13:38:17;8.98;;;4.28;;
45338;SDS011;31071;51.478;5.710;2023-07-16T13:40:45;6.15;;;3.90;;
45338;SDS011;31071;51.478;5.710;2023-07-16T14:05:12;8.73;;;4.22;;
45338;SDS011;31071;51.478;5.710;2023-07-16T14:08:17;9.07;;;4.55;;
45338;SDS011;31071;51.478;5.710;2023-07-16T14:20:14;7.18;;;4.50;;
45338;SDS011;31071;51.478;5.710;2023-07-16T14:26:50;11.07;;;4.70;;
45338;SDS011;31071;51.478;5.710;2023-07-16T14:32:55;7.95;;;4.38;;
45338;SDS011;31071;51.478;5.710;2023-07-16T14:45:49;7.65;;;3.88;;
45338;SDS011;31071;51.478;5.710;2023-07-16T14:49:07;8.18;;;3.92;;
45338;SDS011;31071;51.478;5.710;2023-07-16T14:55:45;7.93;;;4.45;;
45338;SDS011;31071;51.478;5.710;2023-07-16T14:58:19;11.95;;;5.50;;
45338;SDS011;31071;51.478;5.710;2023-07-16T15:00:46;10.45;;;5.22;;
45338;SDS011;31071;51.478;5.710;2023-07-16T15:03:17;8.57;;;4.47;;
45338;SDS011;31071;51.478;5.710;2023-07-16T15:05:44;9.27;;;4.35;;
45338;SDS011;31071;51.478;5.710;2023-07-16T15:08:10;9.05;;;4.43;;
45338;SDS011;31071;51.478;5.710;2023-07-16T15:10:36;9.88;;;5.25;;
45338;SDS011;31071;51.478;5.710;2023-07-16T15:13:03;8.80;;;4.15;;
45338;SDS011;31071;51.478;5.710;2023-07-16T15:15:29;7.07;;;4.00;;
45338;SDS011;31071;51.478;5.710;2023-07-16T15:17:54;8.07;;;4.32;;
45338;SDS011;31071;51.478;5.710;2023-07-16T15:20:21;10.30;;;4.80;;
45338;SDS011;31071;51.478;5.710;2023-07-16T15:22:48;9.13;;;5.30;;
45338;SDS011;31071;51.478;5.710;2023-07-16T15:25:19;8.43;;;5.13;;
45338;SDS011;31071;51.478;5.710;2023-07-16T15:27:49;11.80;;;6.43;;
45338;SDS011;31071;51.478;5.710;2023-07-16T15:30:14;13.25;;;8.45;;
45338;SDS011;31071;51.478;5.710;2023-07-16T15:32:40;12.32;;;7.38;;
45338;SDS011;31071;51.478;5.710;2023-07-16T15:35:07;7.53;;;4.50;;
45338;SDS011;31071;51.478;5.710;2023-07-16T15:37:34;9.32;;;4.78;;
45338;SDS011;31071;51.478;5.710;2023-07-16T15:40:00;11.45;;;6.40;;
45338;SDS011;31071;51.478;5.710;2023-07-16T15:42:39;10.88;;;5.57;;
45338;SDS011;31071;51.478;5.710;2023-07-16T15:45:05;8.50;;;4.72;;
45338;SDS011;31071;51.478;5.710;2023-07-16T15:47:56;11.70;;;5.55;;
45338;SDS011;31071;51.478;5.710;2023-07-16T15:50:23;12.38;;;6.05;;
45338;SDS011;31071;51.478;5.710;2023-07-16T15:52:50;10.18;;;6.50;;
45338;SDS011;31071;51.478;5.710;2023-07-16T15:55:21;8.80;;;6.03;;
45338;SDS011;31071;51.478;5.710;2023-07-16T15:57:52;11.80;;;6.43;;
45338;SDS011;31071;51.478;5.710;2023-07-16T16:00:22;10.60;;;4.43;;
45338;SDS011;31071;51.478;5.710;2023-07-16T16:02:51;8.43;;;4.20;;
45338;SDS011;31071;51.478;5.710;2023-07-16T16:12:30;6.93;;;4.20;;
45338;SDS011;31071;51.478;5.710;2023-07-16T16:15:05;7.20;;;4.40;;
45338;SDS011;31071;51.478;5.710;2023-07-16T16:21:05;10.23;;;4.53;;
45338;SDS011;31071;51.478;5.710;2023-07-16T16:30:44;8.90;;;4.97;;
45338;SDS011;31071;51.478;5.710;2023-07-16T16:33:32;7.53;;;3.65;;
45338;SDS011;31071;51.478;5.710;2023-07-16T16:36:00;5.40;;;3.30;;
45338;SDS011;31071;51.478;5.710;2023-07-16T16:45:07;7.80;;;3.90;;
45338;SDS011;31071;51.478;5.710;2023-07-16T16:47:43;8.07;;;3.90;;
45338;SDS011;31071;51.478;5.710;2023-07-16T16:56:24;7.00;;;3.60;;
45338;SDS011;31071;51.478;5.710;2023-07-16T17:05:31;8.60;;;3.25;;
45338;SDS011;31071;51.478;5.710;2023-07-16T17:07:56;6.60;;;3.35;;
45338;SDS011;31071;51.478;5.710;2023-07-16T17:10:23;7.75;;;4.03;;
45338;SDS011;31071;51.478;5.710;2023-07-16T17:12:52;6.20;;;3.70;;
45338;SDS011;31071;51.478;5.710;2023-07-16T17:15:32;6.07;;;3.40;;
45338;SDS011;31071;51.478;5.710;2023-07-16T17:18:11;6.10;;;3.67;;
45338;SDS011;31071;51.478;5.710;2023-07-16T17:20:37;8.18;;;3.75;;
45338;SDS011;31071;51.478;5.710;2023-07-16T17:23:11;8.90;;;3.47;;
45338;SDS011;31071;51.478;5.710;2023-07-16T17:25:46;8.77;;;3.85;;
45338;SDS011;31071;51.478;5.710;2023-07-16T17:28:11;5.60;;;3.45;;
45338;SDS011;31071;51.478;5.710;2023-07-16T17:30:38;6.40;;;3.50;;
45338;SDS011;31071;51.478;5.710;2023-07-16T17:33:05;8.55;;;3.42;;
45338;SDS011;31071;51.478;5.710;2023-07-16T17:35:36;7.80;;;3.65;;
45338;SDS011;31071;51.478;5.710;2023-07-16T17:38:03;4.70;;;3.38;;
45338;SDS011;31071;51.478;5.710;2023-07-16T17:40:30;7.30;;;3.50;;
45338;SDS011;31071;51.478;5.710;2023-07-16T17:42:55;5.70;;;3.70;;
45338;SDS011;31071;51.478;5.710;2023-07-16T17:45:24;8.00;;;3.72;;
45338;SDS011;31071;51.478;5.710;2023-07-16T17:47:51;5.88;;;3.50;;
45338;SDS011;31071;51.478;5.710;2023-07-16T17:50:19;5.65;;;3.60;;
45338;SDS011;31071;51.478;5.710;2023-07-16T17:52:47;5.32;;;3.50;;
45338;SDS011;31071;51.478;5.710;2023-07-16T17:55:15;6.95;;;3.83;;
45338;SDS011;31071;51.478;5.710;2023-07-16T17:57:41;4.88;;;3.42;;
45338;SDS011;31071;51.478;5.710;2023-07-16T18:00:13;5.00;;;3.45;;